Time;durP1;ratioP1;P1;durP2;ratioP2;P2;SDS_P1;SDS_P2;PMS_P1;PMS_P2;Temp;Humidity;BMP_temperature;BMP_pressure;BME280_temperature;BME280_humidity;BME280_pressure;Samples;Min_cycle;Max_cycle;Signal;HPM_P1;HPM_P2
2022/03/19 00:00:36;;;;;;;10.93;5.53;;;9.50;73.90;;;;;;5029938;28;20037;-67
2022/03/19 00:03:02;;;;;;;7.68;5.28;;;9.50;74.10;;;;;;5030052;28;20021;-67
2022/03/19 00:05:28;;;;;;;8.88;5.53;;;9.50;74.40;;;;;;5009430;28;20428;-67
2022/03/19 00:07:54;;;;;;;9.50;5.85;;;9.50;74.50;;;;;;5030320;28;20032;-67
2022/03/19 00:10:21;;;;;;;8.38;5.03;;;9.40;74.70;;;;;;5026796;28;20029;-67
2022/03/19 00:12:49;;;;;;;11.60;6.07;;;9.40;74.80;;;;;;5029836;28;20104;-67
2022/03/19 00:15:16;;;;;;;11.50;6.03;;;9.40;75.30;;;;;;5029879;28;20025;-67
2022/03/19 00:17:42;;;;;;;7.80;5.60;;;9.40;75.80;;;;;;5029314;28;20569;-67
2022/03/19 00:20:08;;;;;;;9.65;4.80;;;9.30;75.90;;;;;;4996884;28;20018;-67
2022/03/19 00:22:35;;;;;;;11.98;5.80;;;9.30;75.90;;;;;;5028312;28;20037;-67
2022/03/19 00:25:00;;;;;;;12.50;6.18;;;9.30;76.60;;;;;;5027164;28;20045;-67
2022/03/19 00:27:26;;;;;;;10.40;5.95;;;9.20;77.00;;;;;;5029263;28;20025;-67
2022/03/19 00:29:52;;;;;;;12.15;5.68;;;9.10;77.20;;;;;;5029385;28;20029;-67
2022/03/19 00:32:18;;;;;;;8.88;4.70;;;9.10;77.30;;;;;;5029145;28;20034;-67
2022/03/19 00:34:44;;;;;;;13.07;5.70;;;9.10;77.40;;;;;;5029454;28;20079;-67
2022/03/19 00:37:09;;;;;;;13.75;4.95;;;9.10;77.60;;;;;;5029583;28;20035;-66
2022/03/19 00:39:35;;;;;;;10.15;5.00;;;9.00;77.60;;;;;;5029285;28;20022;-67
2022/03/19 00:42:00;;;;;;;9.10;4.95;;;9.00;77.70;;;;;;5029060;28;20029;-67
2022/03/19 00:44:26;;;;;;;7.82;4.35;;;9.00;77.70;;;;;;5029069;28;20036;-67
2022/03/19 00:46:52;;;;;;;9.85;4.43;;;9.00;77.60;;;;;;5028990;28;20109;-67
2022/03/19 00:49:17;;;;;;;13.23;5.15;;;8.90;77.60;;;;;;5029103;28;20029;-67
2022/03/19 00:51:43;;;;;;;7.40;4.30;;;8.90;78.00;;;;;;5026321;28;20030;-67
2022/03/19 00:54:10;;;;;;;11.23;5.20;;;8.90;78.00;;;;;;5028845;28;20022;-67
2022/03/19 00:56:36;;;;;;;15.05;5.80;;;8.80;78.40;;;;;;5028362;28;20388;-67
2022/03/19 00:59:02;;;;;;;8.50;4.97;;;8.80;79.20;;;;;;5028664;28;20029;-67
2022/03/19 01:01:28;;;;;;;8.35;4.30;;;8.80;79.60;;;;;;5027471;28;20546;-67
2022/03/19 01:03:54;;;;;;;10.80;4.57;;;8.70;79.60;;;;;;5024951;28;20033;-66
2022/03/19 01:06:20;;;;;;;8.23;4.25;;;8.70;79.60;;;;;;5010691;28;20556;-66
2022/03/19 01:08:45;;;;;;;7.38;4.20;;;8.70;79.70;;;;;;5029050;28;20097;-66
2022/03/19 01:11:11;;;;;;;8.73;4.00;;;8.70;79.70;;;;;;5029171;28;20129;-66
2022/03/19 01:13:37;;;;;;;9.77;5.18;;;8.70;79.70;;;;;;5011009;28;20481;-67
2022/03/19 01:16:03;;;;;;;7.13;4.70;;;8.60;79.90;;;;;;5028667;28;20106;-66
2022/03/19 01:18:29;;;;;;;7.55;3.80;;;8.60;79.90;;;;;;5028654;28;20025;-66
2022/03/19 01:20:55;;;;;;;6.18;3.13;;;8.60;79.90;;;;;;5028433;28;20493;-67
2022/03/19 01:23:21;;;;;;;6.18;3.30;;;8.60;79.90;;;;;;5025523;28;20032;-66
2022/03/19 01:25:46;;;;;;;5.90;3.22;;;8.50;79.80;;;;;;5010531;28;20485;-67
2022/03/19 01:28:12;;;;;;;7.78;3.58;;;8.50;79.80;;;;;;5028301;28;20112;-66
2022/03/19 01:30:38;;;;;;;6.40;3.05;;;8.50;79.90;;;;;;5010399;28;20036;-66
2022/03/19 01:33:03;;;;;;;10.20;3.45;;;8.50;79.90;;;;;;5024935;28;20099;-66
2022/03/19 01:35:29;;;;;;;6.32;2.97;;;8.50;80.10;;;;;;5026306;28;20550;-66
2022/03/19 01:37:54;;;;;;;10.98;4.85;;;8.40;80.20;;;;;;5026201;28;20057;-66
2022/03/19 01:40:22;;;;;;;7.88;4.28;;;8.40;80.80;;;;;;5028219;28;20075;-66
2022/03/19 01:42:49;;;;;;;11.10;4.20;;;8.30;81.00;;;;;;5028210;28;20022;-67
2022/03/19 01:45:17;;;;;;;8.95;4.32;;;8.30;81.50;;;;;;5010574;28;20021;-67
2022/03/19 01:47:43;;;;;;;9.20;3.85;;;8.30;82.00;;;;;;5021071;28;20060;-67
2022/03/19 01:50:11;;;;;;;6.68;3.78;;;8.20;82.40;;;;;;5028190;28;20067;-67
2022/03/19 01:52:37;;;;;;;7.47;3.88;;;8.20;82.40;;;;;;5023975;28;20034;-67
2022/03/19 01:55:04;;;;;;;8.98;4.13;;;8.20;82.90;;;;;;5027696;28;20485;-67
2022/03/19 01:57:34;;;;;;;10.80;4.47;;;8.10;83.20;;;;;;5027896;28;20044;-67
2022/03/19 02:00:00;;;;;;;10.60;3.88;;;8.10;83.50;;;;;;5027918;28;20018;-67
2022/03/19 02:02:27;;;;;;;11.57;5.03;;;8.00;83.80;;;;;;5028062;28;20018;-67
2022/03/19 02:04:53;;;;;;;12.15;4.53;;;8.00;84.90;;;;;;5010059;28;20029;-67
2022/03/19 02:07:18;;;;;;;10.98;5.05;;;7.90;85.00;;;;;;5029258;28;20083;-67
2022/03/19 02:09:44;;;;;;;13.40;4.80;;;7.90;85.60;;;;;;5031908;28;20067;-67
2022/03/19 02:12:10;;;;;;;12.75;5.13;;;7.90;86.10;;;;;;5032202;28;20060;-67
2022/03/19 02:14:37;;;;;;;11.90;5.43;;;7.80;86.70;;;;;;5031805;28;20116;-67
2022/03/19 02:17:04;;;;;;;14.18;5.40;;;7.80;87.10;;;;;;5019426;28;20021;-67
2022/03/19 02:19:30;;;;;;;9.77;5.35;;;7.70;87.80;;;;;;5029102;28;20339;-67
2022/03/19 02:21:56;;;;;;;17.17;5.55;;;7.70;88.10;;;;;;5031920;28;20030;-67
2022/03/19 02:27:06;;;;;;;9.52;4.75;;;7.60;89.30;;;;;;5031970;28;20072;-67
2022/03/19 02:29:32;;;;;;;11.57;5.35;;;7.50;89.70;;;;;;5032429;28;20041;-67
2022/03/19 02:32:00;;;;;;;15.73;5.53;;;7.50;90.00;;;;;;5031760;28;20095;-67
2022/03/19 02:34:26;;;;;;;11.40;4.93;;;7.50;90.30;;;;;;5028826;28;20485;-67
2022/03/19 02:36:51;;;;;;;11.57;5.50;;;7.50;90.50;;;;;;5031395;28;20028;-67
2022/03/19 02:39:20;;;;;;;12.00;5.18;;;7.50;90.60;;;;;;5031510;28;20022;-66
2022/03/19 02:41:48;;;;;;;11.48;5.47;;;7.40;90.70;;;;;;5031470;28;20389;-67
2022/03/19 02:44:16;;;;;;;11.52;5.30;;;7.40;90.90;;;;;;5025965;28;20366;-67
2022/03/19 02:46:43;;;;;;;14.38;5.70;;;7.40;91.00;;;;;;5031205;28;20025;-67
2022/03/19 02:49:09;;;;;;;13.20;5.40;;;7.40;91.20;;;;;;5031493;28;20021;-66
2022/03/19 02:51:36;;;;;;;10.75;5.57;;;7.30;91.20;;;;;;5031202;28;20079;-67
2022/03/19 02:54:03;;;;;;;12.20;5.85;;;7.30;91.20;;;;;;5031556;28;20043;-66
2022/03/19 02:56:30;;;;;;;13.20;5.43;;;7.30;91.40;;;;;;5032109;28;20107;-67
2022/03/19 02:58:55;;;;;;;14.75;5.80;;;7.30;91.50;;;;;;5031769;28;20036;-67
2022/03/19 03:01:21;;;;;;;12.35;5.68;;;7.30;91.60;;;;;;5030938;28;20100;-67
2022/03/19 03:03:48;;;;;;;11.77;5.60;;;7.30;91.70;;;;;;5031036;28;20547;-67
2022/03/19 03:06:13;;;;;;;13.15;5.85;;;7.30;91.90;;;;;;5014436;28;20022;-66
2022/03/19 03:08:39;;;;;;;12.60;6.07;;;7.30;92.00;;;;;;5028334;28;20029;-67
2022/03/19 03:11:04;;;;;;;15.77;5.70;;;7.20;92.20;;;;;;5030933;28;20018;-67
2022/03/19 03:13:30;;;;;;;13.02;5.55;;;7.20;92.30;;;;;;5030758;28;20030;-66
2022/03/19 03:15:57;;;;;;;12.13;5.32;;;7.20;92.40;;;;;;5030896;28;20504;-67
2022/03/19 03:18:22;;;;;;;14.50;6.07;;;7.20;92.50;;;;;;5030255;28;20432;-66
2022/03/19 03:20:47;;;;;;;18.80;6.22;;;7.20;92.60;;;;;;5030752;28;20080;-67
2022/03/19 03:23:14;;;;;;;11.93;5.60;;;7.10;92.70;;;;;;5030702;28;20030;-66
2022/03/19 03:25:39;;;;;;;15.95;6.03;;;7.10;92.70;;;;;;5027922;28;20025;-66
2022/03/19 03:28:05;;;;;;;16.73;6.78;;;7.10;92.90;;;;;;5030582;28;20035;-67
2022/03/19 03:30:31;;;;;;;12.32;5.15;;;7.10;93.00;;;;;;5030544;28;20477;-66
2022/03/19 03:32:57;;;;;;;14.00;5.38;;;7.00;93.30;;;;;;5030418;28;20065;-66
2022/03/19 03:35:25;;;;;;;13.85;5.75;;;7.00;93.00;;;;;;5027445;28;20025;-67
2022/03/19 03:37:52;;;;;;;10.68;5.10;;;7.00;93.10;;;;;;5030773;28;20049;-66
2022/03/19 03:40:18;;;;;;;12.57;5.22;;;7.00;93.10;;;;;;5030368;28;20014;-66
2022/03/19 03:42:44;;;;;;;10.63;4.40;;;7.00;93.00;;;;;;5030147;28;20116;-67
2022/03/19 03:45:10;;;;;;;11.40;5.07;;;6.90;93.00;;;;;;5030420;28;20639;-67
2022/03/19 03:47:36;;;;;;;11.43;4.78;;;6.90;93.00;;;;;;5016064;28;20077;-66
2022/03/19 03:50:02;;;;;;;10.20;4.88;;;6.90;92.90;;;;;;5027340;28;20430;-67
2022/03/19 03:52:30;;;;;;;10.30;4.40;;;6.90;92.90;;;;;;5012410;28;20124;-66
2022/03/19 03:54:56;;;;;;;9.32;4.72;;;6.90;92.90;;;;;;5029810;28;20029;-66
2022/03/19 03:57:21;;;;;;;13.20;5.55;;;6.90;92.90;;;;;;5027228;28;20026;-66
2022/03/19 03:59:50;;;;;;;10.98;5.38;;;6.80;92.80;;;;;;5030024;28;20531;-66
2022/03/19 04:02:16;;;;;;;9.18;4.18;;;6.80;92.80;;;;;;5029965;28;20028;-66
2022/03/19 04:04:42;;;;;;;8.77;4.50;;;6.80;92.70;;;;;;5029764;28;20033;-67
2022/03/19 04:07:07;;;;;;;10.68;4.55;;;6.80;92.70;;;;;;5030002;28;20029;-67
2022/03/19 04:09:33;;;;;;;10.15;4.75;;;6.80;92.70;;;;;;5029770;28;20033;-66
2022/03/19 04:11:58;;;;;;;8.55;3.80;;;6.80;92.70;;;;;;5029881;28;20468;-67
2022/03/19 04:14:24;;;;;;;12.20;6.70;;;6.70;92.60;;;;;;5029558;28;20026;-67
2022/03/19 04:16:49;;;;;;;9.88;4.65;;;6.70;92.70;;;;;;5011714;28;20075;-66
2022/03/19 04:19:15;;;;;;;11.93;4.80;;;6.70;92.60;;;;;;5029559;28;20116;-66
2022/03/19 04:21:40;;;;;;;9.57;4.28;;;6.60;92.60;;;;;;5029693;28;20028;-66
2022/03/19 04:24:06;;;;;;;9.82;4.57;;;6.60;92.70;;;;;;5028614;28;20025;-66
2022/03/19 04:26:32;;;;;;;11.40;4.60;;;6.60;92.60;;;;;;5027767;28;20107;-67
2022/03/19 04:28:57;;;;;;;9.27;4.63;;;6.60;92.60;;;;;;5029771;28;20108;-67
2022/03/19 04:31:22;;;;;;;8.57;4.43;;;6.50;92.60;;;;;;5028028;28;20447;-66
2022/03/19 04:33:48;;;;;;;9.55;4.90;;;6.50;92.70;;;;;;5027150;28;20033;-66
2022/03/19 04:38:59;;;;;;;14.30;6.13;;;6.40;92.90;;;;;;5028473;28;20036;-68
2022/03/19 04:41:26;;;;;;;8.85;4.85;;;6.40;93.10;;;;;;5029299;28;20053;-66
2022/03/19 04:43:52;;;;;;;13.98;5.40;;;6.40;93.00;;;;;;5026389;28;20393;-67
2022/03/19 04:46:18;;;;;;;10.55;4.88;;;6.30;93.10;;;;;;5026550;28;20499;-66
2022/03/19 04:48:45;;;;;;;11.32;4.90;;;6.30;93.10;;;;;;5008884;28;20444;-66
2022/03/19 04:51:16;;;;;;;12.88;6.65;;;6.30;93.20;;;;;;5026639;28;20096;-66
2022/03/19 04:53:42;;;;;;;13.05;6.68;;;6.30;93.20;;;;;;5026015;28;20108;-66
2022/03/19 04:56:07;;;;;;;12.73;5.93;;;6.20;93.50;;;;;;5028908;28;20136;-67
2022/03/19 04:58:33;;;;;;;13.95;5.55;;;6.20;93.70;;;;;;5010994;28;20036;-68
2022/03/19 05:00:59;;;;;;;9.77;5.10;;;6.20;93.70;;;;;;5028825;28;20426;-67
2022/03/19 05:03:25;;;;;;;10.30;4.82;;;6.10;93.70;;;;;;5028734;28;20535;-67
2022/03/19 05:05:50;;;;;;;11.02;4.55;;;6.20;93.70;;;;;;5028891;28;20430;-67
2022/03/19 05:08:17;;;;;;;11.55;5.80;;;6.10;93.60;;;;;;5010953;28;20037;-67
2022/03/19 05:13:45;;;;;;;15.73;5.30;;;6.10;93.60;;;;;;4994753;28;20034;-68
2022/03/19 05:16:11;;;;;;;;;;;6.10;93.70;;;;;;5029140;28;20541;-68
2022/03/19 05:18:37;;;;;;;9.18;5.10;;;6.00;93.70;;;;;;5010795;28;19913;-67
2022/03/19 05:21:03;;;;;;;9.32;4.72;;;6.00;93.90;;;;;;5028269;28;20048;-68
2022/03/19 05:23:29;;;;;;;9.93;5.85;;;6.00;93.80;;;;;;5028454;28;20040;-67
2022/03/19 05:25:54;;;;;;;10.77;5.25;;;6.00;93.80;;;;;;5028531;28;20026;-70
2022/03/19 05:28:20;;;;;;;10.73;4.95;;;6.00;93.70;;;;;;5028494;28;20069;-67
2022/03/19 05:30:46;;;;;;;11.30;4.60;;;6.00;93.70;;;;;;5028554;28;20033;-67
2022/03/19 05:33:14;;;;;;;13.85;5.63;;;6.00;93.60;;;;;;5008141;28;20092;-67
2022/03/19 05:35:41;;;;;;;13.70;5.88;;;6.00;93.70;;;;;;5028373;28;20108;-68
2022/03/19 05:38:06;;;;;;;12.80;5.78;;;6.00;93.80;;;;;;5025706;28;20033;-67
2022/03/19 05:40:32;;;;;;;12.30;6.03;;;6.00;93.80;;;;;;5028070;28;20025;-67
2022/03/19 05:42:58;;;;;;;11.63;4.95;;;5.90;93.80;;;;;;5010433;28;20037;-67
2022/03/19 05:45:24;;;;;;;11.40;5.65;;;5.90;93.80;;;;;;5027957;28;20041;-68
2022/03/19 05:47:49;;;;;;;8.13;4.88;;;5.90;93.90;;;;;;5028210;28;20021;-67
2022/03/19 05:50:16;;;;;;;13.75;6.15;;;5.90;93.90;;;;;;5026131;28;20079;-67
2022/03/19 05:52:42;;;;;;;17.45;7.13;;;5.90;94.00;;;;;;5027340;28;20473;-67
2022/03/19 05:55:08;;;;;;;11.80;6.50;;;5.90;94.20;;;;;;5027891;28;20496;-67
2022/03/19 05:57:34;;;;;;;8.82;5.95;;;5.80;94.20;;;;;;5027968;28;20558;-67
2022/03/19 05:59:59;;;;;;;12.25;6.03;;;5.90;94.30;;;;;;5027961;28;20034;-67
2022/03/19 06:02:25;;;;;;;19.00;7.05;;;5.80;94.30;;;;;;5027985;28;20018;-67
2022/03/19 06:04:51;;;;;;;14.65;7.03;;;5.80;94.40;;;;;;5026590;28;20021;-68
2022/03/19 06:07:17;;;;;;;15.98;7.43;;;5.80;94.60;;;;;;5021415;28;20022;-67
2022/03/19 06:09:42;;;;;;;19.60;7.50;;;5.80;94.80;;;;;;5007349;28;20362;-67
2022/03/19 06:12:08;;;;;;;14.88;6.47;;;5.80;94.90;;;;;;5009990;28;20021;-67
2022/03/19 06:14:34;;;;;;;12.60;7.10;;;5.80;95.00;;;;;;5027796;28;20034;-67
2022/03/19 06:16:59;;;;;;;14.85;6.97;;;5.80;95.20;;;;;;5004961;28;20390;-67
2022/03/19 06:19:25;;;;;;;13.43;7.68;;;5.80;95.30;;;;;;5027658;28;20114;-67
2022/03/19 06:21:50;;;;;;;17.60;7.97;;;5.90;95.50;;;;;;5027781;28;20158;-67
2022/03/19 06:24:17;;;;;;;18.95;7.93;;;5.80;95.80;;;;;;5028295;28;20033;-67
2022/03/19 06:26:42;;;;;;;16.45;8.43;;;5.80;95.90;;;;;;5029270;28;20041;-67
2022/03/19 06:29:08;;;;;;;15.77;7.57;;;5.90;96.00;;;;;;5031536;28;20040;-66
2022/03/19 06:31:34;;;;;;;18.48;8.80;;;5.90;96.10;;;;;;5031294;28;20029;-67
2022/03/19 06:33:59;;;;;;;18.92;8.07;;;5.90;96.20;;;;;;5031526;28;20025;-66
2022/03/19 06:39:09;;;;;;;17.52;7.65;;;6.00;96.50;;;;;;5026475;28;20392;-67
2022/03/19 06:41:35;;;;;;;13.88;7.55;;;6.00;96.50;;;;;;5021901;28;20021;-67
2022/03/19 06:44:01;;;;;;;17.73;8.50;;;6.00;96.50;;;;;;5030551;28;20030;-66
2022/03/19 06:46:26;;;;;;;12.85;7.10;;;6.10;96.60;;;;;;5029878;28;20112;-67
2022/03/19 06:48:52;;;;;;;17.85;7.95;;;6.10;96.60;;;;;;5030814;28;20049;-68
2022/03/19 06:51:18;;;;;;;17.25;8.38;;;6.10;96.60;;;;;;5029981;28;20041;-67
2022/03/19 06:53:44;;;;;;;13.23;7.20;;;6.10;96.50;;;;;;5031636;28;20025;-68
2022/03/19 06:56:10;;;;;;;13.65;7.63;;;6.20;96.40;;;;;;5034582;28;20109;-67
2022/03/19 06:58:36;;;;;;;13.48;6.35;;;6.20;96.40;;;;;;5034028;28;20112;-68
2022/03/19 07:01:03;;;;;;;14.05;6.70;;;6.30;96.30;;;;;;5016600;28;20056;-67
2022/03/19 07:03:29;;;;;;;12.45;6.80;;;6.30;96.20;;;;;;5034690;28;20022;-67
2022/03/19 07:05:54;;;;;;;16.90;7.15;;;6.30;96.20;;;;;;5035032;28;20385;-67
2022/03/19 07:08:20;;;;;;;18.40;6.88;;;6.40;96.10;;;;;;5034469;28;20041;-68
2022/03/19 07:10:45;;;;;;;10.02;5.72;;;6.40;96.10;;;;;;5033027;28;20022;-67
2022/03/19 07:13:11;;;;;;;16.95;7.43;;;6.40;96.00;;;;;;5033165;28;20852;-67
2022/03/19 07:15:37;;;;;;;14.35;6.70;;;6.50;96.00;;;;;;5017154;28;20022;-67
2022/03/19 07:18:03;;;;;;;13.32;6.82;;;6.50;95.90;;;;;;5034666;28;20488;-67
2022/03/19 07:20:30;;;;;;;12.95;6.38;;;6.60;95.80;;;;;;5034769;28;20024;-67
2022/03/19 07:23:00;;;;;;;13.60;6.40;;;6.60;95.60;;;;;;5034750;28;20018;-67
2022/03/19 07:25:28;;;;;;;13.32;6.07;;;6.70;95.40;;;;;;5016960;28;20027;-67
2022/03/19 07:27:55;;;;;;;12.60;6.50;;;6.70;95.30;;;;;;5034600;28;20022;-67
2022/03/19 07:30:22;;;;;;;14.70;6.20;;;6.70;95.20;;;;;;5034518;28;20049;-67
2022/03/19 07:32:48;;;;;;;15.05;6.15;;;6.80;95.00;;;;;;5034546;28;20029;-67
2022/03/19 07:35:14;;;;;;;14.02;6.25;;;6.80;94.90;;;;;;5015616;28;20095;-67
2022/03/19 07:37:41;;;;;;;11.00;6.25;;;6.90;94.80;;;;;;5034257;28;20036;-67
2022/03/19 07:40:11;;;;;;;12.45;6.20;;;6.90;94.70;;;;;;5033111;28;20025;-67
2022/03/19 07:42:36;;;;;;;13.80;6.05;;;7.00;94.70;;;;;;5033634;28;20029;-67
2022/03/19 07:45:03;;;;;;;11.77;6.38;;;7.10;94.50;;;;;;5032713;28;20515;-67
2022/03/19 07:47:32;;;;;;;11.10;5.05;;;7.10;94.40;;;;;;5032914;28;20461;-67
2022/03/19 07:49:58;;;;;;;13.55;6.13;;;7.20;94.20;;;;;;5032614;28;20026;-67
2022/03/19 07:52:24;;;;;;;11.90;5.25;;;7.20;94.10;;;;;;5032158;28;20113;-68
2022/03/19 07:54:54;;;;;;;11.02;5.32;;;7.30;94.00;;;;;;5032304;28;20030;-66
2022/03/19 07:57:21;;;;;;;12.80;5.80;;;7.30;93.80;;;;;;5032356;28;20034;-67
2022/03/19 07:59:47;;;;;;;12.05;5.85;;;7.40;93.70;;;;;;5032346;28;20060;-67
2022/03/19 08:02:13;;;;;;;18.27;6.35;;;7.40;93.50;;;;;;5031959;28;20061;-67
2022/03/19 08:04:38;;;;;;;10.95;6.22;;;7.50;93.50;;;;;;5031616;28;20311;-67
2022/03/19 08:07:04;;;;;;;12.57;6.13;;;7.50;93.40;;;;;;5033932;28;20543;-67
2022/03/19 08:09:29;;;;;;;12.63;5.45;;;7.60;93.30;;;;;;5032429;28;20025;-67
2022/03/19 08:11:56;;;;;;;14.05;6.13;;;7.60;93.10;;;;;;5032868;28;20037;-66
2022/03/19 08:14:21;;;;;;;11.07;5.15;;;7.70;93.00;;;;;;5033616;28;20120;-66
2022/03/19 08:16:47;;;;;;;15.77;6.13;;;7.80;92.90;;;;;;5033801;28;20105;-67
2022/03/19 08:19:13;;;;;;;13.38;5.75;;;7.80;92.70;;;;;;5033627;28;20086;-67
2022/03/19 08:21:40;;;;;;;16.42;6.20;;;7.90;92.60;;;;;;5033693;28;20026;-66
2022/03/19 08:24:07;;;;;;;14.07;5.32;;;8.00;92.40;;;;;;5033526;28;20041;-67
2022/03/19 08:26:36;;;;;;;15.13;5.53;;;8.00;92.10;;;;;;5033327;28;20121;-66
2022/03/19 08:29:02;;;;;;;13.02;4.65;;;8.10;91.80;;;;;;5033213;28;20029;-67
2022/03/19 08:31:28;;;;;;;8.60;4.10;;;8.20;91.60;;;;;;5033285;28;20449;-66
2022/03/19 08:33:55;;;;;;;10.40;4.43;;;8.30;91.40;;;;;;5032694;28;20040;-66
2022/03/19 08:36:20;;;;;;;10.63;5.13;;;8.30;91.30;;;;;;5033302;28;20389;-66
2022/03/19 08:41:30;;;;;;;14.75;4.78;;;8.50;90.80;;;;;;5033346;28;20045;-67
2022/03/19 08:43:57;;;;;;;12.02;5.32;;;8.60;90.40;;;;;;5033011;28;20421;-66
2022/03/19 08:46:24;;;;;;;10.70;4.78;;;8.70;90.30;;;;;;5033212;28;20040;-67
2022/03/19 08:48:49;;;;;;;11.68;5.25;;;8.70;90.20;;;;;;5033126;28;20029;-67
2022/03/19 08:53:59;;;;;;;9.70;4.60;;;8.90;89.40;;;;;;5032853;28;20500;-66
2022/03/19 08:56:25;;;;;;;12.93;4.85;;;9.00;88.30;;;;;;5032836;28;20049;-66
2022/03/19 08:58:51;;;;;;;10.77;4.78;;;9.10;87.40;;;;;;5015207;28;20469;-67
2022/03/19 09:01:16;;;;;;;10.85;5.07;;;9.10;86.80;;;;;;5032772;28;20033;-67
2022/03/19 09:03:42;;;;;;;12.40;5.35;;;9.20;86.50;;;;;;5032654;28;20021;-67
2022/03/19 09:06:10;;;;;;;13.05;5.90;;;9.30;85.90;;;;;;5032768;28;20557;-67
2022/03/19 09:08:35;;;;;;;10.02;4.38;;;9.30;85.00;;;;;;5032707;28;20456;-67
2022/03/19 09:11:01;;;;;;;12.80;5.50;;;9.40;84.20;;;;;;5032791;28;20485;-67
2022/03/19 09:13:26;;;;;;;11.65;4.93;;;9.50;83.70;;;;;;5032551;28;20025;-67
2022/03/19 09:15:52;;;;;;;12.57;5.07;;;9.60;83.10;;;;;;5032355;28;20468;-67
2022/03/19 09:18:20;;;;;;;12.30;5.07;;;9.60;83.10;;;;;;5032627;28;20439;-67
2022/03/19 09:20:45;;;;;;;11.50;4.07;;;9.70;82.30;;;;;;5032509;28;20014;-68
2022/03/19 09:23:10;;;;;;;11.27;4.20;;;9.70;80.50;;;;;;5032387;28;20030;-67
2022/03/19 09:25:37;;;;;;;10.18;4.20;;;9.80;79.20;;;;;;5032401;28;20032;-67
2022/03/19 09:28:03;;;;;;;9.55;4.03;;;9.90;77.90;;;;;;5032429;28;20018;-67
2022/03/19 09:30:28;;;;;;;7.85;3.85;;;9.90;77.90;;;;;;5032414;28;20036;-66
2022/03/19 09:32:57;;;;;;;8.23;3.83;;;10.00;77.60;;;;;;5032602;28;20080;-66
2022/03/19 09:35:23;;;;;;;8.83;4.33;;;10.10;77.40;;;;;;5014504;28;20477;-67
2022/03/19 09:37:49;;;;;;;5.68;3.35;;;10.10;76.80;;;;;;5032245;28;20025;-67
2022/03/19 09:40:15;;;;;;;11.35;3.42;;;10.20;75.80;;;;;;5032160;28;20413;-67
2022/03/19 09:42:52;;;;;;;8.90;4.55;;;10.30;75.30;;;;;;5032156;28;20017;-67
2022/03/19 09:45:19;;;;;;;7.57;3.25;;;10.50;73.30;;;;;;5014550;28;20553;-67
2022/03/19 09:47:45;;;;;;;8.80;3.33;;;10.50;73.10;;;;;;5032465;28;20104;-67
2022/03/19 09:50:11;;;;;;;7.32;3.10;;;10.60;71.80;;;;;;5032025;28;20075;-67
2022/03/19 09:52:37;;;;;;;8.85;3.00;;;10.70;70.20;;;;;;5032236;28;20081;-66
2022/03/19 09:55:04;;;;;;;6.60;2.67;;;10.90;69.20;;;;;;5031821;28;20079;-66
2022/03/19 09:57:29;;;;;;;9.88;2.40;;;11.00;68.80;;;;;;5014305;28;20037;-66
2022/03/19 09:59:55;;;;;;;8.65;2.60;;;11.10;67.60;;;;;;5014219;28;20108;-67
2022/03/19 10:02:20;;;;;;;5.38;2.25;;;11.30;64.00;;;;;;5032027;28;20029;-67
2022/03/19 10:04:50;;;;;;;9.00;3.40;;;11.30;62.70;;;;;;5032186;28;20037;-67
2022/03/19 10:10:11;;;;;;;5.95;2.53;;;11.60;60.80;;;;;;5032158;28;20129;-67
2022/03/19 10:12:38;;;;;;;7.15;2.17;;;11.70;59.90;;;;;;5031869;28;20041;-67
2022/03/19 10:15:09;;;;;;;6.00;2.10;;;11.90;59.70;;;;;;5031547;28;20120;-67
2022/03/19 10:17:39;;;;;;;8.80;2.58;;;12.10;58.90;;;;;;5032062;28;20032;-66
2022/03/19 10:20:10;;;;;;;5.53;2.13;;;12.20;58.00;;;;;;5014132;28;20049;-66
2022/03/19 10:22:40;;;;;;;5.10;1.85;;;12.40;57.50;;;;;;5031731;28;20029;-67
2022/03/19 10:25:11;;;;;;;3.50;2.13;;;12.60;57.50;;;;;;5031653;28;20044;-67
2022/03/19 10:27:38;;;;;;;6.38;2.08;;;12.80;57.50;;;;;;5031713;28;20021;-66
2022/03/19 10:30:08;;;;;;;6.57;2.30;;;13.10;55.50;;;;;;5035711;28;20396;-67
2022/03/19 10:32:34;;;;;;;4.45;1.80;;;13.30;54.50;;;;;;5035675;28;20044;-68
2022/03/19 10:35:01;;;;;;;6.28;1.75;;;13.50;54.20;;;;;;5017711;28;20033;-67
2022/03/19 10:37:35;;;;;;;4.40;1.75;;;13.80;54.50;;;;;;5035638;28;20013;-66
2022/03/19 10:40:01;;;;;;;5.63;1.70;;;14.10;53.20;;;;;;5035379;28;20025;-66
2022/03/19 10:42:41;;;;;;;5.88;2.00;;;14.30;52.50;;;;;;5035428;28;20094;-66
2022/03/19 10:45:12;;;;;;;5.95;1.83;;;14.70;51.60;;;;;;5035354;28;20424;-68
2022/03/19 10:47:46;;;;;;;4.43;1.77;;;15.20;51.10;;;;;;5036010;28;20076;-67
2022/03/19 10:50:23;;;;;;;4.85;1.90;;;16.10;48.70;;;;;;5035369;28;20083;-67
2022/03/19 10:52:50;;;;;;;6.65;1.52;;;17.00;47.40;;;;;;5035379;28;20026;-68
2022/03/19 10:55:17;;;;;;;5.40;1.40;;;17.70;46.70;;;;;;5034866;28;20076;-67
2022/03/19 10:57:44;;;;;;;5.65;1.90;;;18.50;44.30;;;;;;5035322;28;20029;-68
2022/03/19 11:00:10;;;;;;;4.68;1.50;;;20.80;42.20;;;;;;5035136;28;20103;-68
2022/03/19 11:02:45;;;;;;;3.22;1.02;;;24.10;38.30;;;;;;5035043;28;20465;-67
2022/03/19 11:05:12;;;;;;;3.22;1.17;;;26.80;32.20;;;;;;5033484;28;20057;-67
2022/03/19 11:07:43;;;;;;;2.25;0.90;;;28.60;31.10;;;;;;5035032;28;20110;-67
2022/03/19 11:10:10;;;;;;;4.15;1.13;;;30.40;29.40;;;;;;5017259;28;20382;-67
2022/03/19 11:12:40;;;;;;;2.70;0.80;;;32.10;26.60;;;;;;5017461;28;20026;-68
2022/03/19 11:15:09;;;;;;;3.58;0.70;;;33.40;25.70;;;;;;5034658;28;20025;-68
2022/03/19 11:17:40;;;;;;;3.78;0.98;;;34.50;24.50;;;;;;5016955;28;20022;-68
2022/03/19 11:20:07;;;;;;;2.10;0.90;;;35.30;23.60;;;;;;5034813;28;20018;-68
2022/03/19 11:22:39;;;;;;;2.65;0.90;;;36.10;23.70;;;;;;5034969;28;20025;-67
2022/03/19 11:25:26;;;;;;;2.88;1.00;;;37.40;24.20;;;;;;5017091;28;20048;-68
2022/03/19 11:28:02;;;;;;;3.45;1.25;;;38.20;23.30;;;;;;5034669;28;20021;-65
2022/03/19 11:30:32;;;;;;;3.20;1.20;;;38.50;22.70;;;;;;5034640;28;20017;-65
2022/03/19 11:33:15;;;;;;;2.95;1.00;;;39.20;22.70;;;;;;5034720;28;20080;-65
2022/03/19 11:35:44;;;;;;;4.15;1.20;;;40.00;22.80;;;;;;5016663;28;20377;-66
2022/03/19 11:38:17;;;;;;;2.05;0.80;;;40.70;22.60;;;;;;5016655;28;20032;-66
2022/03/19 11:40:47;;;;;;;2.17;0.95;;;41.40;22.30;;;;;;5034244;28;20021;-66
2022/03/19 11:43:26;;;;;;;2.78;1.05;;;42.10;22.10;;;;;;5034358;28;20547;-66
2022/03/19 11:45:56;;;;;;;3.13;1.35;;;42.70;22.50;;;;;;5034366;28;20109;-66
2022/03/19 11:48:46;;;;;;;4.07;1.30;;;43.30;22.30;;;;;;5034293;28;20028;-67
2022/03/19 11:51:39;;;;;;;2.85;1.17;;;44.10;21.80;;;;;;5034326;28;20022;-66
2022/03/19 11:54:06;;;;;;;3.85;0.95;;;43.70;21.20;;;;;;5034017;28;20032;-66
2022/03/19 11:56:44;;;;;;;1.63;0.80;;;43.80;20.90;;;;;;5033270;28;20049;-66
2022/03/19 11:59:15;;;;;;;2.15;1.13;;;44.00;21.40;;;;;;5015108;28;20112;-66
2022/03/19 12:01:48;;;;;;;3.03;1.20;;;44.70;21.20;;;;;;5033043;28;20026;-66
2022/03/19 12:04:16;;;;;;;3.22;1.20;;;44.70;21.00;;;;;;5032702;28;20083;-66
2022/03/19 12:06:58;;;;;;;2.03;1.48;;;45.10;21.50;;;;;;5033024;28;20060;-66
2022/03/19 12:09:38;;;;;;;2.35;1.38;;;45.60;21.70;;;;;;5032885;28;20033;-66
2022/03/19 12:12:07;;;;;;;4.65;1.60;;;46.30;21.60;;;;;;5032829;28;20503;-66
2022/03/19 12:14:36;;;;;;;2.78;1.45;;;46.70;21.50;;;;;;5032870;28;20025;-66
2022/03/19 12:17:26;;;;;;;2.72;1.30;;;46.70;21.20;;;;;;5032723;28;20105;-66
2022/03/19 12:19:59;;;;;;;1.98;1.23;;;46.20;21.10;;;;;;5032826;28;20049;-67
2022/03/19 12:22:29;;;;;;;3.60;1.52;;;46.30;20.90;;;;;;5032893;28;20022;-66
2022/03/19 12:25:08;;;;;;;3.58;1.73;;;46.40;21.20;;;;;;5032789;28;20032;-67
2022/03/19 12:27:34;;;;;;;2.58;1.42;;;46.70;20.80;;;;;;5032562;28;20029;-67
2022/03/19 12:30:00;;;;;;;2.72;1.30;;;46.70;20.90;;;;;;5032551;28;20044;-66
2022/03/19 12:32:25;;;;;;;2.55;1.20;;;46.10;20.60;;;;;;5032500;28;20430;-66
2022/03/19 12:35:01;;;;;;;3.25;1.58;;;45.90;20.80;;;;;;5032551;28;20029;-66
2022/03/19 12:37:27;;;;;;;2.47;1.17;;;45.80;20.80;;;;;;5032813;28;20477;-66
2022/03/19 12:39:59;;;;;;;3.20;1.30;;;45.80;20.80;;;;;;5032435;28;20048;-66
2022/03/19 12:42:32;;;;;;;2.25;1.27;;;46.00;20.70;;;;;;5032376;28;20028;-66
2022/03/19 12:44:59;;;;;;;3.75;1.52;;;45.70;20.70;;;;;;5032035;28;20396;-66
2022/03/19 12:47:25;;;;;;;;;;;45.30;20.40;;;;;;5032709;28;20465;-67
2022/03/19 12:49:52;;;;;;;3.15;1.45;;;44.50;20.30;;;;;;5032292;28;19905;-66
2022/03/19 12:52:17;;;;;;;3.67;2.10;;;44.00;20.50;;;;;;5031391;28;20049;-66
2022/03/19 12:54:48;;;;;;;2.25;1.20;;;43.40;20.60;;;;;;5032116;28;20038;-66
2022/03/19 12:57:17;;;;;;;2.95;1.52;;;42.80;20.80;;;;;;4997680;28;1009819;-66
2022/03/19 12:59:54;;;;;;;4.10;1.27;;;42.70;20.70;;;;;;5015437;28;20036;-66
2022/03/19 13:02:21;;;;;;;3.33;1.45;;;42.60;20.70;;;;;;5032838;28;20533;-66
2022/03/19 13:04:46;;;;;;;2.83;1.17;;;42.60;20.90;;;;;;5032782;28;20021;-66
2022/03/19 13:07:13;;;;;;;1.80;0.90;;;42.00;20.60;;;;;;5015088;28;20112;-67